Flight Track Log - Related Links

Times and Time Zones

All times are in EDT time to prevent confusion due to time zone crossing. See the BER7688 flight status page for this flight to view local times or setup timezone preferences in your user account.

Time Position Orientation Groundspeed Altitude Reporting Facility
EDT Latitude Longitude Course Direction KTS MPH feet Rate Location/Type
Wed 09:07:00 AM 40.0805 1.7166 304° West  Level Estimated
Wed 09:08:00 AM 40.1460 1.5877 304° West  Level Estimated
Wed 09:09:00 AM 40.2113 1.4586 304° West  Level Estimated
Wed 09:10:00 AM 40.2765 1.3292 303° West  Level Estimated
Wed 09:11:00 AM 40.3415 1.1996 303° West  Level Estimated
Wed 09:12:00 AM 40.4064 1.0697 303° West  Level Estimated
Wed 09:13:00 AM 40.4712 0.9396 303° West  Level Estimated
Wed 09:14:00 AM 40.5358 0.8092 303° West  Level Estimated
Wed 09:15:00 AM 40.6002 0.6786 303° West  Level Estimated
Wed 09:16:00 AM 40.6646 0.5477 303° West  Level Estimated
Wed 09:17:00 AM 40.7287 0.4165 303° West  Level Estimated
Wed 09:18:00 AM 40.7927 0.2851 303° West  Level Estimated
Wed 09:19:00 AM 40.8566 0.1535 303° West  Level Estimated
Wed 09:20:00 AM 40.9203 0.0216 303° West  Level Estimated
Wed 09:21:00 AM 40.9838 -0.1106 303° West  Level Estimated
Wed 09:22:00 AM 41.0473 -0.2430 302° West  Level Estimated
Wed 09:23:00 AM 41.1105 -0.3756 302° West  Level Estimated
Wed 09:24:00 AM 41.1736 -0.5086 302° West  Level Estimated
Wed 09:25:00 AM 41.2366 -0.6417 302° West  Level Estimated
Wed 09:26:00 AM 41.2994 -0.7752 302° West  Level Estimated
Wed 09:27:00 AM 41.3620 -0.9089 302° West  Level Estimated
Wed 09:28:00 AM 41.4245 -1.0428 302° West  Level Estimated
Wed 09:29:00 AM 41.4869 -1.1770 302° West  Level Estimated
Wed 09:30:00 AM 41.5490 -1.3115 302° West  Level Estimated
Wed 09:31:00 AM 41.6110 -1.4462 302° West  Level Estimated
Wed 09:32:00 AM 41.6729 -1.5812 302° West  Level Estimated
Wed 09:33:00 AM 41.7346 -1.7164 301° West  Level Estimated
Wed 09:34:00 AM 41.7962 -1.8519 301° West  Level Estimated
Wed 09:35:00 AM 41.8576 -1.9877 301° West  Level Estimated
Wed 09:36:00 AM 41.9188 -2.1237 301° West  Level Estimated
Wed 09:37:00 AM 41.9799 -2.2600 301° West  Level Estimated
Wed 09:38:00 AM 42.0408 -2.3965 301° West  Level Estimated
Wed 09:39:00 AM 42.1015 -2.5333 301° West  Level Estimated
Wed 09:40:00 AM 42.1621 -2.6704 301° West  Level Estimated
Wed 09:41:00 AM 42.2225 -2.8077 301° West  Level Estimated
Wed 09:42:00 AM 42.2827 -2.9453 301° West  Level Estimated
Wed 09:43:00 AM 42.3428 -3.0831 301° West  Level Estimated
Wed 09:44:00 AM 42.4028 -3.2213 300° West  Level Estimated
Wed 09:45:00 AM 42.4625 -3.3596 300° West  Level Estimated
Wed 09:46:00 AM 42.5221 -3.4983 300° West  Level Estimated
Wed 09:47:00 AM 42.5815 -3.6372 300° West  Level Estimated
Wed 09:48:00 AM 42.6408 -3.7764 300° West  Level Estimated
Wed 09:49:00 AM 42.6999 -3.9158 300° West  Level Estimated
Wed 09:50:00 AM 42.7588 -4.0555 300° West  Level Estimated
Wed 09:51:00 AM 42.8175 -4.1955 300° West  Level Estimated
Wed 09:52:00 AM 42.8761 -4.3357 300° West  Level Estimated
Wed 09:53:00 AM 42.9345 -4.4762 300° West  Level Estimated
Wed 09:54:00 AM 42.9927 -4.6170 300° West  Level Estimated
Wed 09:55:00 AM 43.0508 -4.7580 299° West  Level Estimated
Wed 09:56:00 AM 43.1087 -4.8993 299° West  Level Estimated
Wed 09:57:00 AM 43.1664 -5.0409 299° West  Level Estimated
Wed 09:58:00 AM 43.2239 -5.1827 299° West  Level Estimated
Wed 09:59:00 AM 43.2813 -5.3248 299° West  Level Estimated
Wed 10:00:00 AM 43.3385 -5.4672 299° West  Level Estimated
Wed 10:01:00 AM 43.3955 -5.6098 299° West  Level Estimated
Wed 10:02:00 AM 43.4523 -5.7527 299° West  Level Estimated
Wed 10:03:00 AM 43.5089 -5.8959 299° West  Level Estimated
Wed 10:04:00 AM 43.5636 -6.0346 299° West  Level Estimated
Wed 10:05:00 AM 43.5636 -6.0346 206° Southwest  Level Estimated
Wed 10:06:00 AM 43.5636 -6.0346 206° Southwest  Level Estimated
Wed 10:07:00 AM 43.5636 -6.0346 206° Southwest  Level Estimated
Wed 10:08:00 AM 43.5636 -6.0346 206° Southwest  Level Estimated
Wed 10:09:00 AM 43.5636 -6.0346 206° Southwest  Level Estimated
Wed 10:10:00 AM 43.5636 -6.0346 206° Southwest  Level Estimated
Wed 10:11:00 AM 43.5636 -6.0346 206° Southwest  Level Estimated
Wed 10:12:00 AM 43.5636 -6.0346 206° Southwest  Level Estimated
Wed 10:13:00 AM 43.5636 -6.0346 206° Southwest  Level Estimated
Wed 10:14:00 AM 43.5636 -6.0346 206° Southwest  Level Estimated
Wed 10:15:00 AM 43.5636 -6.0346 206° Southwest  Level Estimated
Wed 10:16:00 AM 43.5636 -6.0346 206° Southwest  Level Estimated
Wed 10:17:00 AM 43.5636 -6.0346 206° Southwest  Level Estimated
Wed 10:18:00 AM 43.5636 -6.0346 206° Southwest  Level Estimated
Wed 10:19:00 AM 43.5636 -6.0346 206° Southwest  Level Estimated
Wed 10:20:00 AM 43.5636 -6.0346 206° Southwest  Level Estimated

Login

Don't have an account? Register now (free) for customized features, flight alerts, and more!